createdAt,value
2022-08-21T00:00:01.734Z,21.83
2022-08-21T00:14:57.022Z,21.64
2022-08-21T00:29:50.260Z,21.44
2022-08-21T00:44:45.059Z,21.24
2022-08-21T00:59:35.990Z,21.02
2022-08-21T01:14:27.185Z,20.83
2022-08-21T01:29:23.888Z,20.63
2022-08-21T01:44:19.496Z,20.43
2022-08-21T01:59:11.095Z,20.27
2022-08-21T02:28:52.608Z,19.85
2022-08-21T02:43:43.666Z,19.74
2022-08-21T02:58:34.835Z,19.63
2022-08-21T03:13:25.994Z,19.47
2022-08-21T03:28:17.556Z,19.39
2022-08-21T03:43:08.545Z,19.28
2022-08-21T03:58:01.013Z,19.14
2022-08-21T04:12:54.286Z,19.00
2022-08-21T04:27:44.899Z,18.86
2022-08-21T04:42:36.490Z,18.58
2022-08-21T04:57:36.717Z,18.45
2022-08-21T05:12:18.879Z,18.34
2022-08-21T05:27:10.744Z,18.37
2022-08-21T05:42:02.604Z,18.46
2022-08-21T05:56:53.890Z,18.64
2022-08-21T06:11:46.201Z,18.94
2022-08-21T06:26:38.787Z,19.28
2022-08-21T06:41:31.879Z,19.69
2022-08-21T06:56:27.801Z,20.06
2022-08-21T07:11:23.074Z,20.38
2022-08-21T07:26:15.633Z,20.76
2022-08-21T07:41:16.695Z,21.19
2022-08-21T07:56:09.003Z,21.51
2022-08-21T08:11:01.453Z,21.80
2022-08-21T08:25:53.982Z,22.17
2022-08-21T08:40:48.940Z,22.44
2022-08-21T08:55:44.500Z,22.75
2022-08-21T09:10:39.861Z,23.10
2022-08-21T09:25:34.200Z,23.33
2022-08-21T09:40:38.957Z,23.60
2022-08-21T09:55:58.453Z,23.95
2022-08-21T10:10:57.117Z,24.21
2022-08-21T10:26:12.787Z,24.43
2022-08-21T10:41:01.478Z,24.85
2022-08-21T10:55:58.037Z,25.08
2022-08-21T11:11:02.273Z,25.39
2022-08-21T11:26:00.641Z,25.71
2022-08-21T11:40:55.315Z,26.35
2022-08-21T11:55:51.265Z,26.67
2022-08-21T12:10:49.427Z,27.10
2022-08-21T12:25:48.522Z,27.49
2022-08-21T12:40:44.321Z,27.70
2022-08-21T12:55:35.920Z,27.86
2022-08-21T13:10:29.085Z,28.41
2022-08-21T13:25:21.144Z,28.66
2022-08-21T13:40:14.104Z,28.94
2022-08-21T13:55:10.170Z,29.29
2022-08-21T14:10:20.570Z,29.73
2022-08-21T14:25:18.799Z,29.93
2022-08-21T14:40:12.570Z,30.26
2022-08-21T14:55:07.141Z,30.58
2022-08-21T15:10:01.622Z,30.90
2022-08-21T15:24:55.853Z,31.33
2022-08-21T15:39:54.085Z,31.43
2022-08-21T15:54:38.979Z,30.28
2022-08-21T17:31:10.339Z,28.26
2022-08-21T18:46:58.596Z,26.56
2022-08-21T19:01:53.022Z,26.27
2022-08-21T19:16:46.977Z,25.97
2022-08-21T19:31:34.567Z,25.60
2022-08-21T19:46:28.347Z,25.29
2022-08-21T20:01:25.257Z,25.11
2022-08-21T20:16:16.157Z,24.86
2022-08-21T20:31:09.468Z,24.50
2022-08-21T20:45:58.651Z,24.26
2022-08-21T21:00:50.218Z,24.07
2022-08-21T21:15:41.180Z,23.81
2022-08-21T21:30:33.044Z,23.59
2022-08-21T21:45:26.878Z,23.37
2022-08-21T22:00:52.162Z,23.20
2022-08-21T22:15:46.834Z,23.13
2022-08-21T22:30:50.533Z,23.11
2022-08-21T22:46:00.692Z,23.03
2022-08-21T23:01:12.458Z,22.92
2022-08-21T23:16:21.422Z,22.85
2022-08-21T23:31:42.356Z,22.82
2022-08-21T23:46:55.210Z,22.81
